Time;durP1;ratioP1;P1;durP2;ratioP2;P2;SDS_P1;SDS_P2;PMS_P1;PMS_P2;Temp;Humidity;BMP_temperature;BMP_pressure;BME280_temperature;BME280_humidity;BME280_pressure;Samples;Min_cycle;Max_cycle;Signal;HPM_P1;HPM_P2
2021/07/09 00:01:12;;;;;;;31.60;21.38;;;16.70;99.90;;;;;;5116875;28;20036;-71
2021/07/09 00:03:37;;;;;;;37.33;22.77;;;16.70;99.90;;;;;;5117072;28;20063;-71
2021/07/09 00:06:04;;;;;;;30.55;21.45;;;16.60;99.90;;;;;;5116863;28;20533;-71
2021/07/09 00:08:30;;;;;;;38.95;24.15;;;16.60;99.90;;;;;;5115577;28;20044;-70
2021/07/09 00:10:55;;;;;;;38.65;24.77;;;16.60;99.90;;;;;;5116568;28;20053;-71
2021/07/09 00:13:21;;;;;;;39.97;26.02;;;16.50;99.90;;;;;;5116567;28;20035;-71
2021/07/09 00:15:47;;;;;;;41.60;25.42;;;16.50;99.90;;;;;;5116951;28;20430;-71
2021/07/09 00:18:13;;;;;;;35.67;22.73;;;16.50;99.90;;;;;;5117132;28;20047;-71
2021/07/09 00:20:38;;;;;;;35.30;23.35;;;16.50;99.90;;;;;;5116167;28;20115;-71
2021/07/09 00:23:04;;;;;;;39.10;25.98;;;16.50;99.90;;;;;;5117017;28;20032;-71
2021/07/09 00:25:30;;;;;;;37.63;25.65;;;16.50;99.90;;;;;;5117012;28;20078;-71
2021/07/09 00:27:56;;;;;;;38.10;23.75;;;16.50;99.90;;;;;;5116852;28;20046;-71
2021/07/09 00:30:21;;;;;;;39.58;25.60;;;16.50;99.90;;;;;;5115964;28;20464;-71
2021/07/09 00:32:47;;;;;;;42.28;26.58;;;16.40;99.90;;;;;;5116254;28;20043;-71
2021/07/09 00:35:13;;;;;;;48.50;27.67;;;16.40;99.90;;;;;;5116789;28;20054;-71
2021/07/09 00:37:38;;;;;;;41.13;25.65;;;16.40;99.90;;;;;;5116326;28;20050;-71
2021/07/09 00:40:08;;;;;;;49.30;28.67;;;16.30;99.90;;;;;;5115814;28;20047;-71
2021/07/09 00:42:34;;;;;;;48.17;28.25;;;16.30;99.90;;;;;;5116317;28;20492;-71
2021/07/09 00:45:01;;;;;;;49.33;26.48;;;16.30;99.90;;;;;;5116526;28;20040;-71
2021/07/09 00:47:27;;;;;;;39.42;26.15;;;16.20;99.90;;;;;;5116077;28;20123;-71
2021/07/09 00:49:52;;;;;;;36.63;25.08;;;16.30;99.90;;;;;;5115688;28;20130;-71
2021/07/09 00:52:18;;;;;;;41.88;25.23;;;16.30;99.90;;;;;;5116588;28;20047;-71
2021/07/09 00:54:44;;;;;;;41.67;24.08;;;16.30;99.90;;;;;;5116726;27;20090;-71
2021/07/09 00:57:11;;;;;;;39.28;24.70;;;16.20;99.90;;;;;;5115928;28;20110;-71
2021/07/09 00:59:37;;;;;;;39.70;25.15;;;16.20;99.90;;;;;;5115384;28;20131;-71
2021/07/09 01:02:04;;;;;;;38.20;25.50;;;16.10;99.90;;;;;;5115974;28;20487;-71
2021/07/09 01:04:30;;;;;;;47.38;28.92;;;16.10;99.90;;;;;;5115133;28;20088;-72
2021/07/09 01:06:56;;;;;;;46.92;27.90;;;16.10;99.90;;;;;;5115912;28;20430;-71
2021/07/09 01:09:21;;;;;;;45.35;28.05;;;16.00;99.90;;;;;;5115451;28;20075;-71
2021/07/09 01:11:50;;;;;;;43.08;28.30;;;16.00;99.90;;;;;;5115404;28;20407;-72
2021/07/09 01:14:19;;;;;;;42.22;26.05;;;16.00;99.90;;;;;;5115558;28;20043;-71
2021/07/09 01:16:46;;;;;;;47.35;27.55;;;16.10;99.90;;;;;;5115952;28;20043;-71
2021/07/09 01:19:20;;;;;;;47.47;29.42;;;16.10;99.90;;;;;;5115281;28;20032;-71
2021/07/09 01:21:46;;;;;;;45.90;28.27;;;16.10;99.90;;;;;;5115496;28;20043;-71
2021/07/09 01:24:12;;;;;;;47.55;27.92;;;16.00;99.90;;;;;;5115241;28;20036;-71
2021/07/09 01:26:40;;;;;;;53.53;31.02;;;16.00;99.90;;;;;;5115190;28;20035;-71
2021/07/09 01:29:07;;;;;;;47.15;29.00;;;16.00;99.90;;;;;;5115017;27;20035;-71
2021/07/09 01:31:34;;;;;;;48.20;27.85;;;16.00;99.90;;;;;;5115263;27;20391;-71
2021/07/09 01:34:02;;;;;;;41.30;26.02;;;16.00;99.90;;;;;;5115285;28;20471;-71
2021/07/09 01:36:29;;;;;;;51.42;27.75;;;16.00;99.90;;;;;;5115960;28;20035;-71
2021/07/09 01:38:54;;;;;;;42.85;25.95;;;16.00;99.90;;;;;;5114892;28;20032;-71
2021/07/09 01:41:20;;;;;;;42.63;25.83;;;15.90;99.90;;;;;;5115275;28;20096;-71
2021/07/09 01:43:46;;;;;;;43.65;25.15;;;15.90;99.90;;;;;;5115237;28;20463;-71
2021/07/09 01:46:13;;;;;;;47.08;26.50;;;15.90;99.90;;;;;;5115470;28;20063;-71
2021/07/09 01:48:39;;;;;;;50.83;27.48;;;15.90;99.90;;;;;;5115032;28;20088;-72
2021/07/09 01:51:06;;;;;;;55.85;29.23;;;15.90;99.90;;;;;;5114762;28;20101;-72
2021/07/09 01:53:32;;;;;;;48.88;26.83;;;15.90;99.90;;;;;;5115250;28;20044;-71
2021/07/09 01:55:58;;;;;;;43.92;26.38;;;15.90;99.90;;;;;;5114814;28;20369;-71
2021/07/09 01:58:23;;;;;;;46.63;26.25;;;15.90;99.90;;;;;;5114687;28;20131;-72
2021/07/09 02:00:50;;;;;;;43.25;25.55;;;15.80;99.90;;;;;;5114752;28;20036;-71
2021/07/09 02:03:17;;;;;;;44.35;24.73;;;15.80;99.90;;;;;;5115261;28;20085;-72
2021/07/09 02:05:42;;;;;;;43.13;25.35;;;15.80;99.90;;;;;;5114430;28;20039;-71
2021/07/09 02:08:08;;;;;;;43.30;25.33;;;15.80;99.90;;;;;;5114389;28;20100;-71
2021/07/09 02:10:41;;;;;;;42.88;24.52;;;15.80;99.90;;;;;;5114269;28;20039;-71
2021/07/09 02:13:06;;;;;;;41.67;25.58;;;15.80;99.90;;;;;;5114517;28;20039;-71
2021/07/09 02:15:39;;;;;;;47.20;26.52;;;15.70;99.90;;;;;;5114149;28;20119;-71
2021/07/09 02:18:06;;;;;;;47.33;26.40;;;15.80;99.90;;;;;;5114284;28;20042;-71
2021/07/09 02:20:33;;;;;;;54.28;27.10;;;15.80;99.90;;;;;;5113927;27;20038;-72
2021/07/09 02:23:01;;;;;;;58.58;29.05;;;15.80;99.90;;;;;;5114338;28;20063;-72
2021/07/09 02:25:27;;;;;;;41.92;25.08;;;15.70;99.90;;;;;;5114409;27;20101;-72
2021/07/09 02:27:54;;;;;;;53.30;27.45;;;15.70;99.90;;;;;;5114133;28;20092;-72
2021/07/09 02:30:22;;;;;;;61.75;28.45;;;15.70;99.90;;;;;;5113643;28;20039;-72
2021/07/09 02:32:49;;;;;;;54.60;28.30;;;15.70;99.90;;;;;;5114006;28;20071;-72
2021/07/09 02:35:18;;;;;;;62.60;28.48;;;15.70;99.90;;;;;;5114167;28;20039;-72
2021/07/09 02:37:47;;;;;;;73.38;31.38;;;15.80;99.90;;;;;;5114056;28;20605;-72
2021/07/09 02:40:16;;;;;;;53.35;28.92;;;15.70;99.90;;;;;;5113807;28;20090;-72
2021/07/09 02:42:44;;;;;;;52.42;29.08;;;15.70;99.90;;;;;;5114440;28;20039;-72
2021/07/09 02:45:10;;;;;;;65.93;33.22;;;15.80;99.90;;;;;;5113837;28;20032;-72
2021/07/09 02:47:38;;;;;;;61.22;30.27;;;15.80;99.90;;;;;;5113933;28;20043;-72
2021/07/09 02:50:06;;;;;;;60.72;31.30;;;15.80;99.90;;;;;;5113446;28;20042;-72
2021/07/09 02:52:32;;;;;;;65.05;30.80;;;15.80;99.90;;;;;;5113915;28;20114;-72
2021/07/09 02:54:57;;;;;;;58.67;30.40;;;15.80;99.90;;;;;;5114313;28;20074;-72
2021/07/09 02:57:23;;;;;;;61.13;30.90;;;15.80;99.90;;;;;;5114338;28;20036;-72
2021/07/09 02:59:49;;;;;;;59.35;32.08;;;15.80;99.90;;;;;;5113727;28;20525;-72
2021/07/09 03:02:15;;;;;;;59.10;31.42;;;15.80;99.90;;;;;;5113557;28;20384;-72
2021/07/09 03:04:41;;;;;;;58.38;29.77;;;15.90;99.90;;;;;;5114290;28;20045;-72
2021/07/09 03:07:06;;;;;;;56.50;29.10;;;15.90;99.90;;;;;;5113742;28;20035;-72
2021/07/09 03:09:32;;;;;;;59.03;29.00;;;15.90;99.90;;;;;;5113406;28;20115;-72
2021/07/09 03:11:57;;;;;;;58.70;28.63;;;15.90;99.90;;;;;;5113553;28;20042;-72
2021/07/09 03:14:23;;;;;;;61.08;31.23;;;15.90;99.90;;;;;;5113609;28;20040;-72
2021/07/09 03:16:49;;;;;;;51.03;29.10;;;15.90;99.90;;;;;;5113668;28;20064;-72
2021/07/09 03:19:14;;;;;;;58.03;29.50;;;15.90;99.90;;;;;;5113193;28;20039;-72
2021/07/09 03:21:40;;;;;;;52.10;27.23;;;15.90;99.90;;;;;;5113862;28;20160;-72
2021/07/09 03:24:06;;;;;;;57.70;28.83;;;15.80;99.90;;;;;;5113658;28;20469;-72
2021/07/09 03:26:33;;;;;;;54.92;29.00;;;16.00;99.90;;;;;;5113429;28;20040;-72
2021/07/09 03:28:58;;;;;;;53.60;29.85;;;16.00;99.90;;;;;;5116180;28;20384;-72
2021/07/09 03:31:28;;;;;;;52.78;28.30;;;15.90;99.90;;;;;;5117559;28;20122;-72
2021/07/09 03:33:54;;;;;;;52.22;28.55;;;16.00;99.90;;;;;;5117752;28;20498;-72
2021/07/09 03:36:20;;;;;;;59.78;29.98;;;15.90;99.90;;;;;;5117511;28;20043;-72
2021/07/09 03:38:48;;;;;;;52.30;29.25;;;16.00;99.90;;;;;;5117455;28;20184;-72
2021/07/09 03:41:13;;;;;;;54.28;30.92;;;16.00;99.90;;;;;;5118031;28;20058;-72
2021/07/09 03:43:39;;;;;;;57.22;29.38;;;16.00;99.90;;;;;;5117881;28;20487;-72
2021/07/09 03:46:05;;;;;;;52.42;29.83;;;16.00;99.90;;;;;;5117305;28;20481;-72
2021/07/09 03:48:31;;;;;;;51.47;28.98;;;16.00;99.90;;;;;;5117103;28;20035;-72
2021/07/09 03:50:56;;;;;;;49.33;29.70;;;16.00;99.90;;;;;;5117112;28;20042;-72
2021/07/09 03:53:22;;;;;;;52.15;28.45;;;16.00;99.90;;;;;;5117597;28;20110;-72
2021/07/09 03:55:48;;;;;;;56.65;30.65;;;16.00;99.90;;;;;;5117082;28;20093;-72
2021/07/09 03:58:13;;;;;;;53.92;28.92;;;16.00;99.90;;;;;;5116950;28;20081;-72
2021/07/09 04:00:39;;;;;;;50.53;30.58;;;16.00;99.90;;;;;;5116892;28;20039;-72
2021/07/09 04:03:05;;;;;;;50.90;28.17;;;16.00;99.90;;;;;;5117282;28;20047;-72
2021/07/09 04:05:31;;;;;;;47.70;28.42;;;16.00;99.90;;;;;;5117200;28;20040;-72
2021/07/09 04:07:57;;;;;;;51.13;28.70;;;15.90;99.90;;;;;;5117290;28;20495;-72
2021/07/09 04:10:22;;;;;;;42.03;26.20;;;15.90;99.90;;;;;;5116427;28;20042;-71
2021/07/09 04:12:48;;;;;;;49.33;28.40;;;16.00;99.90;;;;;;5116970;28;20040;-72
2021/07/09 04:15:14;;;;;;;42.22;24.42;;;16.00;99.90;;;;;;5116789;28;20475;-72
2021/07/09 04:17:40;;;;;;;45.55;25.55;;;16.00;99.90;;;;;;5116555;28;20119;-71
2021/07/09 04:20:07;;;;;;;47.65;26.42;;;16.00;99.90;;;;;;5116372;28;20038;-72
2021/07/09 04:22:33;;;;;;;50.95;28.75;;;16.00;99.90;;;;;;5116556;28;20089;-72
2021/07/09 04:24:59;;;;;;;46.55;27.52;;;16.00;99.90;;;;;;5116563;28;20039;-72
2021/07/09 04:27:25;;;;;;;46.33;27.20;;;16.00;99.90;;;;;;5117059;28;20041;-71
2021/07/09 04:29:51;;;;;;;50.95;29.08;;;16.00;99.90;;;;;;5116053;28;20036;-71
2021/07/09 04:32:16;;;;;;;50.55;27.65;;;16.00;99.90;;;;;;5116769;28;20039;-72
2021/07/09 04:34:42;;;;;;;41.42;26.98;;;16.10;99.90;;;;;;5116815;28;20110;-71
2021/07/09 04:37:11;;;;;;;43.10;26.50;;;16.10;99.90;;;;;;5116224;28;20096;-71
2021/07/09 04:39:37;;;;;;;46.55;26.65;;;16.10;99.90;;;;;;5114660;28;20032;-72
2021/07/09 04:42:04;;;;;;;41.08;26.95;;;16.20;99.90;;;;;;5115995;28;20138;-72
2021/07/09 04:44:31;;;;;;;45.55;25.73;;;16.20;99.90;;;;;;5116177;28;20138;-72
2021/07/09 04:47:00;;;;;;;48.10;26.75;;;16.10;99.90;;;;;;5116082;28;20035;-72
2021/07/09 04:49:26;;;;;;;46.15;28.58;;;16.10;99.90;;;;;;5115679;28;20475;-71
2021/07/09 04:51:53;;;;;;;44.75;26.75;;;16.10;99.90;;;;;;5116490;28;20456;-69
2021/07/09 04:54:20;;;;;;;42.70;25.20;;;16.10;99.90;;;;;;5116524;28;20528;-71
2021/07/09 04:56:46;;;;;;;42.67;25.88;;;16.00;99.90;;;;;;5116087;28;20051;-71
2021/07/09 04:59:12;;;;;;;39.65;25.52;;;16.10;99.90;;;;;;5115504;28;20039;-71
2021/07/09 05:01:37;;;;;;;45.05;25.00;;;16.10;99.90;;;;;;5114454;28;20377;-71
2021/07/09 05:04:07;;;;;;;44.03;25.70;;;16.00;99.90;;;;;;5115828;28;20047;-71
2021/07/09 05:06:34;;;;;;;44.05;26.08;;;16.10;99.90;;;;;;5116198;28;20050;-71
2021/07/09 05:09:00;;;;;;;42.03;25.75;;;16.10;99.90;;;;;;5115390;28;20040;-71
2021/07/09 05:11:26;;;;;;;38.55;24.40;;;16.00;99.90;;;;;;5115618;28;20036;-71
2021/07/09 05:13:52;;;;;;;42.20;24.30;;;16.10;99.90;;;;;;5115709;28;20467;-71
2021/07/09 05:16:19;;;;;;;40.15;25.23;;;16.20;99.90;;;;;;5115563;28;20483;-71
2021/07/09 05:18:44;;;;;;;44.28;24.95;;;16.20;99.90;;;;;;5115461;28;20044;-71
2021/07/09 05:21:10;;;;;;;39.13;24.48;;;16.10;99.90;;;;;;5115454;28;20039;-71
2021/07/09 05:23:36;;;;;;;50.60;27.80;;;16.10;99.90;;;;;;5115588;28;20048;-71
2021/07/09 05:26:02;;;;;;;43.47;25.98;;;16.10;99.90;;;;;;5115188;28;20031;-71
2021/07/09 05:28:27;;;;;;;39.58;22.80;;;16.20;99.90;;;;;;5115466;28;20116;-71
2021/07/09 05:30:55;;;;;;;37.30;23.95;;;16.20;99.90;;;;;;5115175;27;20031;-71
2021/07/09 05:33:21;;;;;;;35.75;22.77;;;16.10;99.90;;;;;;5115565;28;20043;-71
2021/07/09 05:35:46;;;;;;;38.50;23.42;;;16.20;99.90;;;;;;5115734;28;20043;-70
2021/07/09 05:38:12;;;;;;;35.53;22.55;;;16.20;99.90;;;;;;5115322;28;20032;-70
2021/07/09 05:40:40;;;;;;;35.40;23.08;;;16.10;99.90;;;;;;5113153;28;20043;-71
2021/07/09 05:43:06;;;;;;;37.72;23.33;;;16.20;99.90;;;;;;5114740;28;20040;-71
2021/07/09 05:45:32;;;;;;;39.28;24.33;;;16.20;99.90;;;;;;5115464;27;20032;-71
2021/07/09 05:47:57;;;;;;;43.65;24.45;;;16.20;99.90;;;;;;5115564;28;20084;-70
2021/07/09 05:50:25;;;;;;;36.65;22.25;;;16.30;99.90;;;;;;5113980;28;20038;-71
2021/07/09 05:52:51;;;;;;;36.13;21.02;;;16.30;99.90;;;;;;5115385;27;20039;-71
2021/07/09 05:55:17;;;;;;;38.03;24.23;;;16.40;99.90;;;;;;5114888;28;20501;-71
2021/07/09 05:57:43;;;;;;;34.58;23.17;;;16.40;99.90;;;;;;5114726;28;20043;-71
2021/07/09 06:00:10;;;;;;;37.20;24.17;;;16.50;99.90;;;;;;5114340;28;20139;-71
2021/07/09 06:02:36;;;;;;;33.08;22.73;;;16.60;99.90;;;;;;5115088;28;20380;-71
2021/07/09 06:05:07;;;;;;;34.70;21.55;;;16.90;99.90;;;;;;5115240;28;20502;-70
2021/07/09 06:07:33;;;;;;;35.20;22.08;;;17.10;99.90;;;;;;5115188;28;20479;-71
2021/07/09 06:09:59;;;;;;;38.75;22.90;;;17.40;99.90;;;;;;5114378;28;20131;-70
2021/07/09 06:12:25;;;;;;;31.58;21.77;;;17.80;99.90;;;;;;5114423;28;20443;-71
2021/07/09 06:14:55;;;;;;;32.70;20.23;;;18.10;99.90;;;;;;5114857;28;20038;-71
2021/07/09 06:17:21;;;;;;;30.08;19.92;;;18.30;99.90;;;;;;5114963;28;20093;-71
2021/07/09 06:19:47;;;;;;;28.50;19.60;;;18.50;99.90;;;;;;5113923;27;20043;-71
2021/07/09 06:22:13;;;;;;;27.05;17.83;;;18.70;99.90;;;;;;5114059;28;20111;-71
2021/07/09 06:24:39;;;;;;;26.10;17.63;;;18.90;99.90;;;;;;5114505;28;20040;-71
2021/07/09 06:27:05;;;;;;;21.95;16.40;;;19.00;99.90;;;;;;5114291;28;20036;-71
2021/07/09 06:29:31;;;;;;;21.20;15.48;;;18.90;99.90;;;;;;5113801;28;20115;-71
2021/07/09 06:31:56;;;;;;;18.88;15.30;;;19.10;99.90;;;;;;5114380;28;20115;-71
2021/07/09 06:34:22;;;;;;;24.45;17.02;;;19.10;99.90;;;;;;5114675;28;20047;-71
2021/07/09 06:36:48;;;;;;;26.30;17.80;;;19.10;99.90;;;;;;5114135;27;20035;-71
2021/07/09 06:39:14;;;;;;;22.42;15.88;;;19.50;99.90;;;;;;5113874;28;20042;-71
2021/07/09 06:41:39;;;;;;;27.70;17.80;;;19.60;99.90;;;;;;5114275;28;20114;-71
2021/07/09 06:44:05;;;;;;;22.45;16.30;;;20.00;99.90;;;;;;5114533;28;20036;-71
2021/07/09 06:46:31;;;;;;;22.50;17.20;;;20.20;99.90;;;;;;5114016;28;20361;-71
2021/07/09 06:48:57;;;;;;;26.15;18.50;;;19.80;99.90;;;;;;5113507;28;20480;-71
2021/07/09 06:51:23;;;;;;;26.65;18.40;;;19.80;99.90;;;;;;5113923;28;20414;-71
2021/07/09 06:53:48;;;;;;;25.75;18.08;;;19.90;99.90;;;;;;5114141;28;20126;-71
2021/07/09 06:56:15;;;;;;;23.70;17.05;;;20.10;99.90;;;;;;5114140;28;20426;-71
2021/07/09 06:58:41;;;;;;;23.73;16.88;;;20.10;99.90;;;;;;5113882;28;20046;-71
2021/07/09 07:01:06;;;;;;;23.63;15.52;;;20.30;99.90;;;;;;5114420;28;20130;-71
2021/07/09 07:03:32;;;;;;;19.67;15.02;;;20.30;99.90;;;;;;5116463;28;20110;-71
2021/07/09 07:05:58;;;;;;;18.80;14.75;;;20.30;99.90;;;;;;5118161;28;20461;-71
2021/07/09 07:08:25;;;;;;;18.20;13.00;;;20.30;99.90;;;;;;5117980;28;20036;-71
2021/07/09 07:10:52;;;;;;;15.80;13.15;;;20.20;99.90;;;;;;5117827;27;20452;-71
2021/07/09 07:13:19;;;;;;;15.15;12.57;;;19.90;99.90;;;;;;5118445;28;20365;-71
2021/07/09 07:15:44;;;;;;;16.23;13.05;;;19.30;99.90;;;;;;5118156;28;20063;-71
2021/07/09 07:18:10;;;;;;;13.38;11.43;;;19.30;99.90;;;;;;5118371;28;20078;-71
2021/07/09 07:20:43;;;;;;;13.60;11.27;;;19.50;99.90;;;;;;5117333;28;20035;-71
2021/07/09 07:23:15;;;;;;;14.20;11.23;;;19.50;99.90;;;;;;5117823;28;20397;-71
2021/07/09 07:25:41;;;;;;;14.82;11.85;;;19.50;99.90;;;;;;5117882;28;20039;-71
2021/07/09 07:28:08;;;;;;;17.25;11.07;;;19.60;99.90;;;;;;5118127;28;20035;-71
2021/07/09 07:30:35;;;;;;;18.60;11.15;;;19.60;99.90;;;;;;5117114;28;20036;-71
2021/07/09 07:33:01;;;;;;;12.35;10.60;;;19.80;99.90;;;;;;5117643;28;20400;-72
2021/07/09 07:35:26;;;;;;;17.15;11.90;;;19.80;99.90;;;;;;5117649;28;20039;-72
2021/07/09 07:37:52;;;;;;;17.33;11.65;;;19.70;99.90;;;;;;5117321;28;20039;-72
2021/07/09 07:40:19;;;;;;;16.00;11.27;;;19.60;99.90;;;;;;5117123;28;20047;-71
2021/07/09 07:42:45;;;;;;;15.90;11.18;;;19.50;99.90;;;;;;5117870;28;20054;-71
2021/07/09 07:45:11;;;;;;;15.15;10.88;;;19.20;99.90;;;;;;5117525;28;20043;-72
2021/07/09 07:47:38;;;;;;;16.85;12.20;;;19.20;99.90;;;;;;5117401;28;20429;-72
2021/07/09 07:50:04;;;;;;;18.60;12.32;;;19.10;99.90;;;;;;5116784;28;20105;-72
2021/07/09 07:52:30;;;;;;;16.55;12.50;;;19.00;99.90;;;;;;5117545;28;20059;-72
2021/07/09 07:54:55;;;;;;;14.82;11.50;;;18.70;99.90;;;;;;5116274;28;20066;-72
2021/07/09 07:57:21;;;;;;;14.40;11.75;;;18.80;99.90;;;;;;5117731;28;20040;-72
2021/07/09 07:59:47;;;;;;;18.55;12.50;;;18.90;99.90;;;;;;5116563;28;20039;-72
2021/07/09 08:02:13;;;;;;;15.68;11.32;;;19.10;99.90;;;;;;5117368;28;20036;-72
2021/07/09 08:04:39;;;;;;;23.98;12.15;;;19.20;99.90;;;;;;5115845;28;20089;-72
2021/07/09 08:07:06;;;;;;;14.77;11.30;;;18.90;99.90;;;;;;5117205;28;20047;-72
2021/07/09 08:09:32;;;;;;;16.42;11.98;;;19.10;99.90;;;;;;5116450;27;20433;-72
2021/07/09 08:11:59;;;;;;;17.67;12.57;;;19.20;99.90;;;;;;5117440;27;20073;-72
2021/07/09 08:14:25;;;;;;;16.05;12.75;;;19.40;99.90;;;;;;5115434;28;20036;-71
2021/07/09 08:16:51;;;;;;;13.68;11.35;;;19.60;99.90;;;;;;5116756;28;20036;-71
2021/07/09 08:19:21;;;;;;;18.58;13.85;;;19.70;99.90;;;;;;5116525;28;20042;-72
2021/07/09 08:21:47;;;;;;;14.35;12.75;;;19.80;99.90;;;;;;5116985;28;20085;-72
2021/07/09 08:24:17;;;;;;;18.83;12.57;;;19.90;99.90;;;;;;5116769;28;20067;-71
2021/07/09 08:26:44;;;;;;;18.95;12.90;;;19.90;99.90;;;;;;5117096;28;20040;-72
2021/07/09 08:29:11;;;;;;;16.42;12.88;;;20.30;99.90;;;;;;5116735;27;20040;-72
2021/07/09 08:31:37;;;;;;;17.92;12.63;;;20.70;99.90;;;;;;5116918;28;20039;-72
2021/07/09 08:34:04;;;;;;;19.67;12.80;;;21.10;99.90;;;;;;5116722;28;20043;-72
2021/07/09 08:36:30;;;;;;;19.42;12.00;;;21.10;99.90;;;;;;5116707;28;20039;-72
2021/07/09 08:38:56;;;;;;;15.40;12.45;;;21.10;99.90;;;;;;5116276;28;20111;-72
2021/07/09 08:41:22;;;;;;;15.38;11.95;;;21.20;99.90;;;;;;5116844;28;20111;-72
2021/07/09 08:43:48;;;;;;;14.82;12.43;;;20.90;99.90;;;;;;5116342;28;20549;-72
2021/07/09 08:46:14;;;;;;;15.43;12.55;;;21.10;99.90;;;;;;5116181;28;20066;-72
2021/07/09 08:48:41;;;;;;;16.73;12.73;;;20.50;99.90;;;;;;5116190;28;20036;-72
2021/07/09 08:51:08;;;;;;;18.15;13.77;;;20.40;99.90;;;;;;5115907;28;20039;-72
2021/07/09 08:53:35;;;;;;;17.13;11.30;;;20.40;99.90;;;;;;5116717;28;20040;-72
2021/07/09 08:56:01;;;;;;;14.73;11.90;;;20.40;99.90;;;;;;5116267;28;20027;-72
2021/07/09 08:58:27;;;;;;;16.27;11.85;;;20.00;99.90;;;;;;5116085;28;20040;-72
2021/07/09 09:00:53;;;;;;;16.10;13.02;;;20.20;99.90;;;;;;5115992;28;20040;-72
2021/07/09 09:03:26;;;;;;;15.45;12.13;;;20.20;99.90;;;;;;5116012;28;20067;-70
2021/07/09 09:05:59;;;;;;;14.27;10.82;;;20.20;99.90;;;;;;5116551;28;20121;-70
2021/07/09 09:08:32;;;;;;;14.45;10.55;;;20.10;99.90;;;;;;5115514;28;20071;-70
2021/07/09 09:10:59;;;;;;;13.03;11.53;;;20.10;99.90;;;;;;5116088;28;20395;-70
2021/07/09 09:13:24;;;;;;;11.70;9.13;;;20.30;99.90;;;;;;5114451;28;20285;-70
2021/07/09 09:16:11;;;;;;;11.60;10.40;;;20.40;99.90;;;;;;5116120;28;20042;-70
2021/07/09 09:18:49;;;;;;;15.48;10.38;;;20.40;99.90;;;;;;5115270;28;20064;-70
2021/07/09 09:21:22;;;;;;;10.80;9.27;;;20.40;99.90;;;;;;5115555;28;20070;-70
2021/07/09 09:23:51;;;;;;;12.48;8.75;;;21.00;99.90;;;;;;5115786;28;20064;-70
2021/07/09 09:26:40;;;;;;;11.68;8.90;;;20.60;99.90;;;;;;5115113;28;20063;-70
2021/07/09 09:29:13;;;;;;;12.02;8.52;;;21.00;99.90;;;;;;5115162;28;20039;-70
2021/07/09 09:31:40;;;;;;;11.82;8.55;;;21.40;99.90;;;;;;5115324;28;20052;-70
2021/07/09 09:34:06;;;;;;;12.35;9.27;;;21.70;99.90;;;;;;5114644;28;20035;-71
2021/07/09 09:36:33;;;;;;;9.77;8.10;;;21.80;99.90;;;;;;5115537;28;20390;-70
2021/07/09 09:39:02;;;;;;;11.70;8.35;;;22.10;99.90;;;;;;5114711;28;20035;-72
2021/07/09 09:41:29;;;;;;;9.98;7.45;;;22.30;99.90;;;;;;5115536;28;20040;-71
2021/07/09 09:44:15;;;;;;;8.82;7.50;;;22.60;99.70;;;;;;5115515;28;20047;-70
2021/07/09 09:46:43;;;;;;;9.20;7.82;;;22.90;99.90;;;;;;5115393;28;20044;-70
2021/07/09 09:49:15;;;;;;;12.10;8.40;;;23.10;99.90;;;;;;5114536;28;20096;-71
2021/07/09 09:51:41;;;;;;;8.80;7.90;;;22.90;99.90;;;;;;5114654;28;20046;-71
2021/07/09 09:54:09;;;;;;;10.23;7.45;;;22.30;99.70;;;;;;5111244;28;20039;-71
2021/07/09 09:56:37;;;;;;;9.35;7.75;;;22.30;99.90;;;;;;5094152;28;20036;-71
2021/07/09 09:59:19;;;;;;;8.55;7.43;;;22.10;99.90;;;;;;5094283;28;20104;-70
2021/07/09 10:01:49;;;;;;;9.30;7.82;;;22.10;99.70;;;;;;5094241;28;20403;-71
2021/07/09 10:04:15;;;;;;;12.27;7.65;;;22.00;99.70;;;;;;5094107;28;20115;-71
2021/07/09 10:06:43;;;;;;;12.13;8.18;;;22.40;99.70;;;;;;5093998;28;20075;-71
2021/07/09 10:09:11;;;;;;;10.60;8.05;;;22.30;99.40;;;;;;5094166;27;20078;-71
2021/07/09 10:11:38;;;;;;;8.68;6.85;;;22.40;99.90;;;;;;5093711;28;20063;-72
2021/07/09 10:14:04;;;;;;;11.13;7.57;;;22.20;99.80;;;;;;5093793;28;20044;-71
2021/07/09 10:16:31;;;;;;;8.63;6.32;;;22.50;98.80;;;;;;5108973;28;20114;-71
2021/07/09 10:18:58;;;;;;;16.35;7.85;;;22.60;99.10;;;;;;5106462;28;20073;-72
2021/07/09 10:21:24;;;;;;;8.10;6.72;;;22.80;99.30;;;;;;5094104;28;20040;-73
2021/07/09 10:24:01;;;;;;;10.48;6.55;;;22.90;99.30;;;;;;5093655;28;20040;-73
2021/07/09 10:26:26;;;;;;;9.00;6.47;;;22.60;97.80;;;;;;5094216;28;20040;-71
2021/07/09 10:29:17;;;;;;;9.98;7.13;;;22.70;97.40;;;;;;5093708;28;20045;-71
2021/07/09 10:31:51;;;;;;;9.43;7.32;;;22.80;95.60;;;;;;5093637;28;20055;-71
2021/07/09 10:34:31;;;;;;;9.40;7.00;;;23.00;97.90;;;;;;5093781;28;20044;-71
2021/07/09 10:37:19;;;;;;;9.90;6.93;;;23.20;98.80;;;;;;5094185;28;20036;-71
2021/07/09 10:39:51;;;;;;;9.13;6.75;;;23.10;97.50;;;;;;5093424;28;20176;-72
2021/07/09 10:42:28;;;;;;;8.53;7.03;;;23.00;98.30;;;;;;5094195;28;20122;-71
2021/07/09 10:45:02;;;;;;;8.88;6.60;;;22.90;97.80;;;;;;5093921;28;20372;-71
2021/07/09 10:47:50;;;;;;;8.73;7.07;;;22.80;98.20;;;;;;5093592;28;20047;-71
2021/07/09 10:50:19;;;;;;;7.57;6.32;;;22.60;96.10;;;;;;5093684;28;20109;-70
2021/07/09 10:52:52;;;;;;;7.63;6.10;;;23.00;97.30;;;;;;5093408;28;20044;-70
2021/07/09 10:55:27;;;;;;;9.77;6.65;;;23.10;97.70;;;;;;5093968;28;20039;-69
2021/07/09 10:58:07;;;;;;;10.00;7.30;;;23.20;97.00;;;;;;5093510;28;20067;-70
2021/07/09 11:00:56;;;;;;;7.60;6.40;;;23.20;96.60;;;;;;5093147;28;20044;-71
2021/07/09 11:03:31;;;;;;;7.55;6.28;;;22.70;96.10;;;;;;5093349;28;20040;-70
2021/07/09 11:06:13;;;;;;;10.40;6.25;;;22.60;96.00;;;;;;5093433;28;20040;-71
2021/07/09 11:08:50;;;;;;;11.02;6.32;;;22.60;97.10;;;;;;5093520;28;20042;-71
2021/07/09 11:11:28;;;;;;;9.52;5.65;;;22.60;99.30;;;;;;5093945;28;20036;-71
2021/07/09 11:13:59;;;;;;;8.30;6.32;;;22.50;98.40;;;;;;5093784;28;20427;-71
2021/07/09 11:16:25;;;;;;;6.95;6.00;;;22.60;99.20;;;;;;5093103;28;20028;-71
2021/07/09 11:18:59;;;;;;;9.60;6.97;;;22.40;98.50;;;;;;5092973;28;20502;-71
2021/07/09 11:21:33;;;;;;;7.97;6.22;;;22.60;99.00;;;;;;5093707;28;20039;-71
2021/07/09 11:24:03;;;;;;;8.52;6.93;;;22.80;99.20;;;;;;5093723;28;20055;-71
2021/07/09 11:26:36;;;;;;;7.40;6.10;;;22.90;97.40;;;;;;5093130;28;20047;-71
2021/07/09 11:29:25;;;;;;;9.75;7.00;;;23.10;96.80;;;;;;5092959;28;20043;-71
2021/07/09 11:31:56;;;;;;;7.45;6.43;;;23.20;97.80;;;;;;5093119;28;20119;-70
2021/07/09 11:34:23;;;;;;;8.73;6.78;;;23.30;97.90;;;;;;5093823;28;20040;-72
2021/07/09 11:37:02;;;;;;;7.82;7.03;;;23.20;97.10;;;;;;5093096;28;20066;-70
2021/07/09 11:39:31;;;;;;;7.22;5.63;;;23.20;97.20;;;;;;5092741;28;20051;-71
2021/07/09 11:42:01;;;;;;;8.93;6.25;;;23.20;97.20;;;;;;5093153;28;20047;-71
2021/07/09 11:44:36;;;;;;;8.88;6.25;;;23.10;96.80;;;;;;5093050;28;20068;-71
2021/07/09 11:47:29;;;;;;;6.30;5.70;;;23.10;95.10;;;;;;5093639;28;20435;-71
2021/07/09 11:50:00;;;;;;;6.10;5.35;;;23.30;95.10;;;;;;5093908;28;20076;-71
2021/07/09 11:52:32;;;;;;;8.75;6.63;;;23.20;95.20;;;;;;5096702;28;20203;-71
2021/07/09 11:55:00;;;;;;;6.40;5.65;;;23.20;96.40;;;;;;5097432;28;20088;-71
2021/07/09 11:57:28;;;;;;;8.65;5.75;;;23.30;96.60;;;;;;5097406;28;20047;-71
2021/07/09 11:59:56;;;;;;;9.32;5.78;;;23.30;96.00;;;;;;5096311;28;20046;-71
2021/07/09 12:02:29;;;;;;;6.90;5.72;;;23.40;95.60;;;;;;5097148;28;20067;-71
2021/07/09 12:04:54;;;;;;;;;;;23.60;94.80;;;;;;5096988;28;20408;-71
2021/07/09 12:07:27;;;;;;;8.13;6.30;;;23.50;93.30;;;;;;5097062;28;19916;-71
2021/07/09 12:09:56;;;;;;;7.80;5.75;;;23.70;93.90;;;;;;5096440;28;20484;-71
2021/07/09 12:12:25;;;;;;;10.05;6.80;;;23.60;92.90;;;;;;5096888;28;20494;-71
2021/07/09 12:14:59;;;;;;;6.82;5.30;;;23.70;93.00;;;;;;5096578;28;20047;-71
2021/07/09 12:17:26;;;;;;;9.10;6.15;;;23.60;95.00;;;;;;5096519;28;20043;-71
2021/07/09 12:19:56;;;;;;;7.03;5.25;;;23.30;96.20;;;;;;5095940;28;20063;-71
2021/07/09 12:22:27;;;;;;;11.20;6.18;;;23.20;95.90;;;;;;5097025;28;20040;-70
2021/07/09 12:24:53;;;;;;;6.82;6.05;;;22.90;95.80;;;;;;5096346;28;20119;-71
2021/07/09 12:27:19;;;;;;;7.70;5.97;;;22.70;96.50;;;;;;5095381;28;20036;-71
2021/07/09 12:29:46;;;;;;;11.35;7.05;;;22.60;97.60;;;;;;5095683;28;20511;-70
2021/07/09 12:32:12;;;;;;;8.65;6.32;;;22.50;98.70;;;;;;5096489;28;20358;-70
2021/07/09 12:34:38;;;;;;;8.35;6.03;;;22.30;98.90;;;;;;5096551;28;20093;-71